Horton, Missouri
Current Conditions -  °F | °C
As of 7:35 AM on Saturday 25 Oct 2014 (Local Time) from KPTS Reporting Station
Haze Haze  
Wind Chill: 58°   Ceiling: Unl
Heat Index: 58°   Visibility: 2.5mi
Dew Point: 58°   Wind: 3mph
Humidity: 100%   Direction: 210°SSW
Pressure: 30.06"   Gusts: NA
Location:  37.97°N, 94.36°W
Report Text: KPTS 251235Z AUTO 21003KT 2 1/2SM BR CLR 15/15 A3006 RMK AO2 T01470148
Loading
Personal Weather Stations






























Interactive Weather Map
Tropical Storm Tracking
New forecast layout! Learn more

10-Day Weather Forecast

Advertisements
Track Severe Weather on mobile